Portada
METAR-TAF:

METAR-TAF

Aeropuertos :

Aeropuerto Internacional Reina Beatrix

Aruba, Aruba

latitud: 12-30N, longitud: 070-01W, altitud: 18 m

Observación

El informe se hizo hace 55 minutos, a las 19:00 UTC
Viento 23 kt del este
Temperatura 30°C
Humedad 66%
Presión 1012 hPa
Visibilidad 10 km o más
Escasas nubes a una altura de 2500 ft

METAR: TNCA 211900Z 08023KT 9999 FEW025 30/23 Q1012 NOSIG

Hora: 15:55 (19:55 UTC)

Pronóstico

El informe se hizo hace 4 horas y 3 minutos, a las 15:52 UTC
Pronóstico válido del 21 a las 18 UTC al 22 a las 18 UTC
Viento 20 kt del este con ráfagas de 30 kt
Visibilidad 10 km o más
Nubes dispersas a una altura de 2200 ft
Temporalmente
del 22 a las 06 UTC al 22 a las 12 UTC
Viento 16 kt del este

TAF: TNCA 211552Z 2118/2218 10020G30KT 9999 SCT022 TEMPO 2206/2212 09016KT

Observaciones y pronósticos meteorológicos de más de 4000 aeropuertos (mensajes METAR y TAF).

Los puntos amarillos y rojos representan las estaciones disponibles.

Ponga el ratón en el punto deseado para ver el nombre de la estación.

Haga clic para ver las observaciones y los pronósticos meteorológicos.

Para cambiar el mapa : haga clic en los botones verdes con una cruz de color negro para hacer un zoom, en el botón verde con un guión para alejar o en las flechas verdes para mapas adyacentes.


METAR-TAF: